LFBT/LDE METAR and TAF weather

Enter ICAO airport designator
Station Type Date Time Source
LFBT METAR 2019/05/26 23:00 UTC NOAA

LFBT 262300Z AUTO 28007KT 6000 -DZ FEW010 BKN021 OVC028 12/12 Q1020 BECMG BKN008


Station Type Date Time Source
LFBT Decoded METAR 2019/05/26 23:00 UTC NOAA

Tarbes Ossun Lourdes, France (LFBT) 43-11N 000-00W 363M
May 26, 2019 - 07:00 PM EDT / 2019.05.26 2300 UTC
Wind: from the W (280 degrees) at 8 MPH (7 KT):0
Visibility: 3 mile(s):0
Sky conditions: overcast
Weather: light drizzle
Temperature: 53 F (12 C)
Dew Point: 53 F (12 C)
Relative Humidity: 100%
Pressure (altimeter): 30.12 in. Hg (1020 hPa)
ob: LFBT 262300Z AUTO 28007KT 6000 -DZ FEW010 BKN021 OVC028 12/12 Q1020 BECMG BKN008
cycle: 23

Station Type Date Time Source
LFBT TAF 2019/05/26 18:21 UTC NOAA

TAF LFBT 261700Z 2618/2718 27008KT 9999 SCT030 BKN070
BECMG 2620/2622 BKN008
TEMPO 2706/2712 3000 -RADZ OVC004
BECMG 2712/2714 2000 -RA OVC003

Example: see airport list